Sarasota Bradenton International Airport
KSRQ : rendu visible

Aérodrome :











RETROUVEZ-NOUS SUR...

 
LOGIN :

S'inscrire | Disclaimer

   EN    FR    IT 

 









Légende :    VFR   VFR Marginal   IFR   IFR Intensif   IFR Très Intensif
Visi : 
Plafond : 
>= 8 km
>= 3000ft
5 à 8 km
1000 à 3000 ft
1500m à 5 km
500 à 1000 ft
800 à 1500m
200 à 500 ft
< 800m
< 200 ft
Symboles :   Orages  Brouillard  Fortes neiges  Fortes précipitations  Vent > 20 kt







- Altitude de l'aérodrome : 30 ft
- Code IATA : SRQ


KSRQ - Sarasota Bradenton International

DERNIER METAR :
  • 202353Z 23006KT 10SM CLR 30/25 A3000 RMK AO2 SLP157 T03000250 10322 20300 55003

METARs EXPIRÉS :
  • 202253Z 24007KT 10SM CLR 31/24 A2999 RMK AO2 SLP155 T03060244
  • 202153Z 26007KT 10SM FEW027 31/25 A3000 RMK AO2 SLP160 T03110250

TAF KSRQ
Valide du 21 à 00h jusqu'au 22 à 00h UTC


202337Z 2100/2124 25007KT P6SM FEW250
FM210600 24005KT P6SM FEW020 SCT250
FM211500 25008KT P6SM FEW030 SCT250
FM211800 27010KT P6SM SCT250
FIR KZMA / Amérique du Nord



MET'MAP, la Météo Aéronautique d'un coup d'oeil ! - Copyright ORBIFLY Décembre 2007 - Disclaimer

ORBIFLY MET'MAP TEAM :

Programmation & Développement : Alexandra Zaïnal
Conception & Développement : Baudouin d'Aumeries
Co-Programmation & Développement : Marc-Olivier Méhu
Soutien technique & logistique : Manuel Goepfert

Contact : metmap@orbifly.com




SOURCES & CREDITS :

   NOAA       Earth
Advisory